SEASEATTLE-TACOMA INTL
METARs for airports near SEA, sorted by distance:
N 0 nm 432' KSEA 040153Z 00000KT 10SM BKN075 BKN180 08/03 A3037
NE 4 nm 32' KRNT 040153Z 00000KT 10SM BKN080 08/03 A3037
N 4 nm 21' KBFI 040153Z 14003KT 10SM OVC080 08/02 A3038
SW 15 nm 294' KTIW 040153Z 19003KT 10SM OVC070 07/02 A3037
W 18 nm 444' KPWT 040156Z 00000KT 10SM OVC055 07/03 A3036
S 19 nm 322' KTCM 040158Z 00000KT 10SM BKN065 OVC160 05/03 A3037
S 20 nm 537' KPLU 040155Z 00000KT 10SM BKN070 BKN120 05/04 A3036
SW 24 nm 301' KGRF 040158Z 11003KT 10SM OVC065 06/06 A3036
N 27 nm 607' KPAE 040153Z 15004KT 10SM OVC085 09/00 A3036
W 36 nm 272' KSHN 040153Z 00000KT 10SM OVC065 06/05 A3034
SW 37 nm 207' KOLM 040154Z 20006KT 10SM OVC050 07/02 A3037
N 43 nm 141' KAWO 040156Z 00000KT 10SM OVC090 06/04 A3038
SW 53 nm 177' KCLS 040155Z 22003KT 10SM BKN055 OVC065 07/03 A3038
N 55 nm 47' KNUW 040156Z 00000KT 7SM SCT065 BKN080 OVC100 09/02 A3040
NW 60 nm 13' KNOW 040155Z 00000KT 10SM OVC060 07/06 A3036
N 61 nm 145' KBVS 040155Z 00000KT 10SM OVC080 07/04 A3037
NW 62 nm 291' KCLM 040053Z 00000KT 10SM BKN065 OVC075 07/05 A3033
NW 70 nm 112' KFHR 040153Z 00000KT 10SM 07/04 A3036
SW 72 nm 17' KHQM 040200Z 10005KT 10SM BKN029 OVC035 07/04 A3036
E 76 nm 1763' KELN 040153Z 00000KT 10SM SCT080 BKN090 OVC110 02/M03 A3042
N 79 nm 34' KORS 040155Z 00000KT 10SM OVC065 07/06 A3035
N 81 nm 171' KBLI 040153Z 02004KT 10SM OVC080 07/03 A3036
S 83 nm 20' KKLS 040156Z 00000KT 10SM CLR 05/01 A3040
NW 84 nm 64' CYYJ 040100Z 29003KT 30SM BKN059 OVC080 07/05 A3034
E 85 nm 1248' KEAT 040155Z 31003KT 10SM CLR 01/M03 A3045
SE 89 nm 1098' KYKM 040153Z 00000KT 10SM BKN120 02/M03 A3045
W 95 nm 193' KUIL 040153Z 16004KT 10SM OVC025 10/M01 A3033
TAFs for airports near SEA, sorted by distance:
N 0 nm 432' KSEA KSEA 032329Z 0400/0506 22005KT P6SM BKN100 OVC150
  FM040300 VRB03KT P6SM BKN060 BKN100
  FM041800 02004KT P6SM FEW250
  FM050000 03007KT P6SM SKC
N 4 nm 21' KBFI KBFI 032329Z 0400/0424 00000KT P6SM BKN100 OVC150
  FM040300 VRB03KT P6SM BKN060 BKN100
  FM041800 VRB03KT P6SM FEW250
W 18 nm 444' KPWT TAF KPWT 032329Z 0400/0424 20003KT P6SM BKN100 OVC150
  FM040300 VRB03KT P6SM BKN060 BKN100
  FM041700 03004KT P6SM FEW250
S 19 nm 322' KTCM TAF KTCM 032100Z 0321/0503 15006KT 9999 BKN120 QNH3030INS
  BECMG 0400/0401 VRB06KT 9999 BKN070 OVC100 620909 QNH3037INS
  BECMG 0410/0411 16006KT 9999 BKN025 OVC050 QNH3046INS
  BECMG 0414/0415 02006KT 9999 SCT035 QNH3032INS TX09/0323Z TN03/0414Z
SW 24 nm 301' KGRF TAF KGRF 032109Z 0321/0503 12005KT 9999 SCT050 BKN100 OVC150 QNH3029INS
  BECMG 0402/0403 VRB05KT 9999 BKN050 OVC080 QNH3038INS
  BECMG 0408/0409 VRB05KT 9999 OVC020 QNH3044INS
  BECMG 0411/0412 05005KT 3200 BR OVC015 QNH3044INS
  BECMG 0417/0418 05005KT 9999 NSW SCT040 QNH3030INS TX10/0420Z TN05/0403Z
N 27 nm 607' KPAE KPAE 032329Z 0400/0424 18005KT P6SM FEW060 BKN090 OVC150
  FM040800 VRB03KT P6SM SCT070 SCT250
  FM041800 36003KT P6SM SKC
SW 37 nm 207' KOLM KOLM 032329Z 0400/0424 25005KT P6SM OVC100
  FM040400 VRB03KT P6SM BKN040 BKN100
  FM041100 00000KT 5SM BR BKN025
  FM041400 00000KT 1/2SM FG VV003
  FM041800 00000KT 4SM BR BKN003
  FM042000 03004KT P6SM SKC
N 55 nm 47' KNUW TAF KNUW 0323/0423 VRB06KT 9999 FEW030 SCT060 BKN100 OVC220 640809 QNH3034INS
  TEMPO 0323/0404 9999 -RA SCT030 BKN050 OVC095
  FM040400 13007KT 9999 FEW025 BKN050 BKN180 600000 QNH3040INS
  TEMPO 0412/0418 VRB05KT SCT008 BKN025 OVC035
  FM041800 VRB05KT 9999 FEW020 SCT040 SCT250 QNH3037INS T10/0323Z T04/0413Z FS30046
NW 62 nm 291' KCLM KCLM 032329Z 0400/0424 07003KT P6SM OVC080
  FM040300 VRB03KT P6SM BKN060 BKN120
  FM041200 21003KT P6SM SCT250
  FM041700 08004KT P6SM SKC
SW 72 nm 17' KHQM KHQM 032329Z 0400/0424 10010KT P6SM OVC050
  FM040800 09008KT P6SM BKN012 OVC020
  FM041700 08008KT P6SM BKN025
  FM041900 08008KT P6SM SKC
N 81 nm 171' KBLI KBLI 032329Z 0400/0424 34003KT P6SM BKN100 OVC200
  FM040600 VRB03KT P6SM BKN060 BKN100
  FM041800 36003KT P6SM SKC
E 85 nm 1248' KEAT KEAT 032339Z 0400/0424 VRB04KT P6SM SCT120 BKN200
  FM040700 30003KT P6SM SKC
  FM041200 VRB02KT 4SM BR SCT002 BKN025
  FM041800 26002KT P6SM SCT020 BKN250
SE 89 nm 1098' KYKM KYKM 032338Z 0400/0424 VRB03KT P6SM SCT100 OVC150
  FM040400 27006KT P6SM SCT100 BKN150
  FM041000 29006KT P6SM FEW250
  FM041800 VRB03KT P6SM FEW250

Shortcut to this page: http://wxbay.com.

Data may contain errors.